Time;durP1;ratioP1;P1;durP2;ratioP2;P2;SDS_P1;SDS_P2;PMS_P1;PMS_P2;Temp;Humidity;BMP_temperature;BMP_pressure;BME280_temperature;BME280_humidity;BME280_pressure;Samples;Min_cycle;Max_cycle;Signal;HPM_P1;HPM_P2
2021/01/22 00:00:58;;;;;;;2.13;0.60;;;9.30;91.70;;;;;;5110956;28;20533;-79
2021/01/22 00:03:24;;;;;;;2.03;0.80;;;9.30;91.80;;;;;;5116567;28;20031;-79
2021/01/22 00:05:49;;;;;;;3.50;0.68;;;9.30;91.80;;;;;;5099695;27;20032;-79
2021/01/22 00:08:15;;;;;;;3.40;0.80;;;9.30;91.90;;;;;;5118769;27;20046;-79
2021/01/22 00:10:40;;;;;;;2.20;0.52;;;9.30;92.00;;;;;;5126900;27;20074;-79
2021/01/22 00:13:06;;;;;;;4.72;0.80;;;9.30;92.10;;;;;;5116377;28;20039;-79
2021/01/22 00:15:32;;;;;;;2.30;0.57;;;9.30;92.10;;;;;;5116443;27;20019;-79
2021/01/22 00:17:58;;;;;;;4.75;1.05;;;9.30;92.20;;;;;;5137312;27;20031;-79
2021/01/22 00:20:23;;;;;;;2.92;0.65;;;9.30;92.20;;;;;;5118539;27;20389;-78
2021/01/22 00:22:49;;;;;;;6.55;0.95;;;9.30;92.20;;;;;;5108178;28;20035;-79
2021/01/22 00:25:15;;;;;;;6.97;1.20;;;9.30;92.20;;;;;;5113596;27;20038;-79
2021/01/22 00:27:40;;;;;;;4.22;1.08;;;9.30;92.30;;;;;;5118536;27;20031;-79
2021/01/22 00:30:07;;;;;;;2.30;1.23;;;9.30;92.30;;;;;;5127847;27;20023;-79
2021/01/22 00:32:32;;;;;;;3.75;1.20;;;9.30;92.40;;;;;;5116259;28;20023;-79
2021/01/22 00:34:58;;;;;;;5.57;1.13;;;9.30;92.40;;;;;;5129512;27;20433;-80
2021/01/22 00:37:24;;;;;;;5.50;1.17;;;9.30;92.40;;;;;;5118202;27;20055;-79
2021/01/22 00:39:50;;;;;;;2.10;0.80;;;9.30;92.50;;;;;;5065091;28;20016;-79
2021/01/22 00:42:15;;;;;;;3.15;1.10;;;9.30;92.50;;;;;;5115748;28;20023;-77
2021/01/22 00:44:41;;;;;;;3.03;0.80;;;9.30;92.60;;;;;;5103627;28;20023;-79
2021/01/22 00:47:07;;;;;;;2.22;0.98;;;9.30;92.70;;;;;;5115685;28;20437;-79
2021/01/22 00:49:33;;;;;;;6.65;1.35;;;9.30;92.70;;;;;;5097213;28;20031;-79
2021/01/22 00:51:58;;;;;;;2.05;0.75;;;9.30;93.00;;;;;;5080588;28;20097;-79
2021/01/22 00:54:24;;;;;;;1.45;0.70;;;9.20;91.90;;;;;;5099230;28;20035;-79
2021/01/22 00:56:49;;;;;;;3.40;1.30;;;8.90;90.70;;;;;;5097220;28;20034;-79
2021/01/22 00:59:15;;;;;;;1.98;1.52;;;8.50;90.70;;;;;;5091848;27;20076;-79
2021/01/22 01:01:40;;;;;;;1.73;1.20;;;8.30;91.10;;;;;;5119628;27;20031;-79
2021/01/22 01:04:06;;;;;;;2.90;1.85;;;8.00;91.10;;;;;;5121305;27;20110;-79
2021/01/22 01:06:32;;;;;;;2.22;2.03;;;7.80;91.20;;;;;;5099809;27;20035;-79
2021/01/22 01:08:57;;;;;;;6.30;2.22;;;7.60;91.40;;;;;;5110750;27;20551;-79
2021/01/22 01:11:23;;;;;;;3.90;2.45;;;7.40;91.80;;;;;;5132776;27;20555;-79
2021/01/22 01:13:48;;;;;;;2.25;2.00;;;7.20;91.60;;;;;;5119522;27;20030;-78
2021/01/22 01:16:14;;;;;;;2.30;2.10;;;7.00;91.40;;;;;;5132246;27;20023;-79
2021/01/22 01:18:40;;;;;;;2.97;2.65;;;6.80;91.10;;;;;;5118249;27;20179;-79
2021/01/22 01:21:05;;;;;;;3.83;3.30;;;6.70;91.20;;;;;;5082091;28;20508;-79
2021/01/22 01:23:31;;;;;;;3.75;3.45;;;6.50;91.20;;;;;;5113586;28;20047;-79
2021/01/22 01:25:57;;;;;;;3.40;3.10;;;6.30;91.60;;;;;;5096333;28;20074;-78
2021/01/22 01:28:22;;;;;;;2.35;2.15;;;6.20;91.70;;;;;;5117886;27;20039;-79
2021/01/22 01:30:48;;;;;;;2.15;1.95;;;6.00;91.50;;;;;;5096213;28;20488;-79
2021/01/22 01:33:13;;;;;;;2.10;2.00;;;5.90;91.40;;;;;;5112965;27;20080;-78
2021/01/22 01:35:39;;;;;;;2.47;1.73;;;5.80;91.10;;;;;;5114490;27;20110;-79
2021/01/22 01:38:05;;;;;;;1.60;1.50;;;5.60;91.20;;;;;;5123943;27;20051;-79
2021/01/22 01:40:30;;;;;;;1.10;1.02;;;5.50;91.60;;;;;;5107298;28;20062;-79
2021/01/22 01:42:56;;;;;;;1.20;1.00;;;5.40;91.30;;;;;;5125785;27;20483;-79
2021/01/22 01:45:22;;;;;;;1.10;1.00;;;5.30;91.70;;;;;;5110081;28;20031;-78
2021/01/22 01:47:47;;;;;;;2.70;1.10;;;5.20;91.60;;;;;;5114494;27;20036;-79
2021/01/22 01:50:13;;;;;;;1.30;1.20;;;5.10;91.50;;;;;;5116287;27;20038;-78
2021/01/22 01:52:40;;;;;;;1.60;1.50;;;5.10;91.60;;;;;;5121423;27;20054;-79
2021/01/22 01:55:07;;;;;;;1.92;1.83;;;5.10;91.70;;;;;;5096640;27;20132;-79
2021/01/22 01:57:33;;;;;;;2.10;1.90;;;5.00;91.50;;;;;;5093880;28;20032;-79
2021/01/22 02:00:00;;;;;;;3.00;2.75;;;4.90;91.60;;;;;;5126148;27;20140;-79
2021/01/22 02:02:27;;;;;;;3.33;3.08;;;4.90;91.70;;;;;;5119431;27;20072;-79
2021/01/22 02:04:53;;;;;;;4.40;4.00;;;4.90;91.80;;;;;;5121139;27;20694;-79
2021/01/22 02:07:19;;;;;;;4.90;4.50;;;4.80;91.80;;;;;;5109242;27;20160;-79
2021/01/22 02:09:45;;;;;;;6.05;5.55;;;4.80;92.00;;;;;;5125758;27;20095;-79
2021/01/22 02:12:11;;;;;;;5.85;5.30;;;4.80;92.00;;;;;;5128865;27;20474;-79
2021/01/22 02:14:38;;;;;;;6.32;5.82;;;4.80;92.00;;;;;;5112952;28;20024;-79
2021/01/22 02:17:04;;;;;;;7.63;6.93;;;4.80;91.90;;;;;;5113286;28;20034;-79
2021/01/22 02:19:46;;;;;;;5.85;5.35;;;4.80;91.90;;;;;;5078467;28;20020;-79
2021/01/22 02:22:11;;;;;;;6.45;5.85;;;4.80;92.00;;;;;;5121371;27;20022;-79
2021/01/22 02:24:38;;;;;;;8.10;7.30;;;4.90;92.00;;;;;;5096086;28;20036;-79
2021/01/22 02:27:07;;;;;;;6.88;6.28;;;4.90;92.00;;;;;;5123799;27;20059;-79
2021/01/22 02:29:34;;;;;;;6.57;6.07;;;4.90;91.80;;;;;;5113028;28;20081;-79
2021/01/22 02:32:06;;;;;;;7.00;6.40;;;4.90;91.80;;;;;;5099244;28;20035;-79
2021/01/22 02:34:34;;;;;;;7.22;6.53;;;4.80;91.80;;;;;;5110906;28;20526;-79
2021/01/22 02:37:02;;;;;;;6.63;6.10;;;4.80;91.90;;;;;;5082305;28;20052;-79
2021/01/22 02:39:33;;;;;;;6.55;5.95;;;4.90;92.00;;;;;;5116049;27;20102;-79
2021/01/22 02:42:01;;;;;;;6.10;5.47;;;5.00;92.00;;;;;;5098409;28;20439;-79
2021/01/22 02:44:30;;;;;;;6.95;6.35;;;5.00;92.00;;;;;;5113209;28;20027;-79
2021/01/22 02:46:57;;;;;;;6.77;6.13;;;5.00;91.70;;;;;;5126440;27;20459;-79
2021/01/22 02:49:22;;;;;;;7.43;5.97;;;5.10;91.80;;;;;;5127796;27;20499;-79
2021/01/22 02:51:48;;;;;;;7.10;6.40;;;5.10;91.80;;;;;;5098652;28;20028;-79
2021/01/22 02:54:14;;;;;;;6.50;5.90;;;5.10;91.70;;;;;;5094219;28;20493;-79
2021/01/22 02:56:45;;;;;;;5.88;5.28;;;5.10;91.70;;;;;;5116045;28;20027;-79
2021/01/22 02:59:48;;;;;;;6.53;5.95;;;5.10;91.70;;;;;;5096384;28;20651;-79
2021/01/22 03:02:38;;;;;;;6.32;5.72;;;5.10;91.60;;;;;;5130447;27;20087;-79
2021/01/22 03:05:09;;;;;;;5.72;5.22;;;5.10;91.60;;;;;;5122937;27;20032;-79
2021/01/22 03:07:45;;;;;;;5.50;5.00;;;5.00;91.50;;;;;;5124126;27;20026;-79
2021/01/22 03:10:11;;;;;;;5.85;5.35;;;5.00;91.50;;;;;;5097089;28;20036;-79
2021/01/22 03:12:37;;;;;;;5.95;5.30;;;4.90;91.50;;;;;;5116077;27;20038;-79
2021/01/22 03:15:04;;;;;;;6.88;6.20;;;4.90;91.60;;;;;;5107206;28;20034;-79
2021/01/22 03:17:30;;;;;;;5.85;5.28;;;4.90;91.50;;;;;;5124906;27;20111;-79
2021/01/22 03:19:56;;;;;;;4.35;3.95;;;5.00;91.60;;;;;;5110474;28;20110;-79
2021/01/22 03:22:22;;;;;;;5.03;4.63;;;4.90;91.50;;;;;;5116786;28;20107;-79
2021/01/22 03:24:48;;;;;;;4.50;3.90;;;4.90;91.60;;;;;;5121134;27;20126;-79
2021/01/22 03:27:15;;;;;;;4.88;3.92;;;5.00;91.60;;;;;;5129760;27;20046;-79
2021/01/22 03:29:41;;;;;;;4.10;3.72;;;5.00;91.60;;;;;;5102514;28;20555;-79
2021/01/22 03:32:07;;;;;;;5.13;4.13;;;5.00;91.60;;;;;;5116260;28;20115;-79
2021/01/22 03:34:33;;;;;;;5.10;4.07;;;5.10;91.60;;;;;;5129701;27;20027;-79
2021/01/22 03:37:01;;;;;;;4.50;3.90;;;5.00;91.50;;;;;;5097360;27;20099;-79
2021/01/22 03:39:27;;;;;;;5.03;4.13;;;5.00;91.50;;;;;;5131157;27;20051;-79
2021/01/22 03:41:53;;;;;;;4.93;3.60;;;5.00;91.60;;;;;;5119580;27;20020;-79
2021/01/22 03:44:19;;;;;;;4.00;3.60;;;5.00;91.40;;;;;;5114538;28;20117;-79
2021/01/22 03:46:46;;;;;;;5.20;3.63;;;5.00;91.50;;;;;;5122090;27;20741;-79
2021/01/22 03:49:12;;;;;;;6.22;4.22;;;4.90;91.50;;;;;;5118865;27;20019;-79
2021/01/22 03:51:37;;;;;;;4.03;3.63;;;5.00;91.50;;;;;;5098458;28;20053;-79
2021/01/22 03:54:04;;;;;;;5.50;3.70;;;4.90;91.50;;;;;;5122736;27;20024;-79
2021/01/22 03:56:31;;;;;;;5.03;3.55;;;4.90;91.50;;;;;;5110857;27;20047;-79
2021/01/22 03:58:56;;;;;;;4.00;3.60;;;4.90;91.50;;;;;;5114915;27;20072;-79
2021/01/22 04:01:22;;;;;;;6.05;3.58;;;4.90;91.60;;;;;;5095569;27;20497;-79
2021/01/22 04:03:48;;;;;;;8.07;3.70;;;4.90;91.60;;;;;;5116002;28;20023;-79
2021/01/22 04:06:14;;;;;;;5.75;4.20;;;4.90;91.60;;;;;;5122355;27;20023;-79
2021/01/22 04:08:40;;;;;;;4.90;3.72;;;4.90;91.60;;;;;;5116178;27;20028;-80
2021/01/22 04:11:06;;;;;;;7.13;3.80;;;4.90;91.60;;;;;;5115756;28;20027;-79
2021/01/22 04:13:32;;;;;;;4.10;3.60;;;4.90;91.60;;;;;;5116686;27;20040;-79
2021/01/22 04:15:58;;;;;;;5.22;3.85;;;4.90;91.60;;;;;;5129095;27;20032;-79
2021/01/22 04:18:23;;;;;;;8.50;4.22;;;4.90;91.70;;;;;;5111189;27;20518;-79
2021/01/22 04:20:49;;;;;;;5.15;4.22;;;4.90;91.70;;;;;;5106082;28;20024;-79
2021/01/22 04:23:15;;;;;;;6.10;4.30;;;4.90;91.70;;;;;;5115851;28;20126;-79
2021/01/22 04:25:40;;;;;;;5.03;4.20;;;4.90;91.70;;;;;;5100988;28;20138;-79
2021/01/22 04:28:06;;;;;;;6.70;5.07;;;4.90;91.70;;;;;;5105557;28;20031;-79
2021/01/22 04:30:31;;;;;;;7.38;5.65;;;4.90;91.70;;;;;;5114070;28;20054;-79
2021/01/22 04:32:57;;;;;;;8.25;5.03;;;4.90;91.80;;;;;;5089272;28;20040;-79
2021/01/22 04:35:22;;;;;;;9.15;5.88;;;4.80;91.80;;;;;;5114843;28;20031;-79
2021/01/22 04:37:48;;;;;;;8.43;5.35;;;4.80;91.80;;;;;;5101033;28;20127;-79
2021/01/22 04:40:15;;;;;;;7.25;5.18;;;4.90;91.90;;;;;;5097571;28;20080;-79
2021/01/22 04:42:42;;;;;;;8.98;6.53;;;4.90;91.90;;;;;;5097509;28;20511;-79
2021/01/22 04:45:10;;;;;;;9.60;5.72;;;4.90;91.80;;;;;;5115134;28;20028;-79
2021/01/22 04:47:40;;;;;;;13.93;6.47;;;4.90;91.80;;;;;;5113846;27;20076;-79
2021/01/22 04:50:07;;;;;;;8.20;6.07;;;4.90;91.80;;;;;;5115723;27;20027;-79
2021/01/22 04:52:35;;;;;;;8.57;6.03;;;4.90;91.80;;;;;;5119570;27;20540;-79
2021/01/22 04:55:03;;;;;;;13.30;6.43;;;4.90;91.90;;;;;;5113921;28;20028;-79
2021/01/22 04:57:31;;;;;;;8.68;6.43;;;4.90;91.90;;;;;;5120201;27;20023;-79
2021/01/22 04:59:57;;;;;;;10.40;6.25;;;4.90;91.90;;;;;;5125555;27;20023;-79
2021/01/22 05:02:23;;;;;;;11.35;6.18;;;4.90;91.90;;;;;;5109122;28;20391;-79
2021/01/22 05:04:52;;;;;;;6.88;5.85;;;4.90;91.80;;;;;;5114980;28;20031;-79
2021/01/22 05:07:21;;;;;;;9.13;6.10;;;4.90;91.80;;;;;;5113788;27;20062;-79
2021/01/22 05:09:47;;;;;;;8.52;6.55;;;4.90;91.80;;;;;;5113946;27;20031;-79
2021/01/22 05:12:13;;;;;;;9.95;6.53;;;4.90;91.80;;;;;;5114611;27;20023;-79
2021/01/22 05:14:39;;;;;;;9.23;6.53;;;4.90;91.80;;;;;;5115576;27;20059;-79
2021/01/22 05:17:09;;;;;;;11.15;7.50;;;4.90;91.90;;;;;;5114739;28;20114;-79
2021/01/22 05:19:37;;;;;;;8.68;6.78;;;4.90;91.90;;;;;;5113964;27;20020;-79
2021/01/22 05:22:04;;;;;;;9.25;6.60;;;4.90;91.90;;;;;;5096487;28;20059;-79
2021/01/22 05:24:30;;;;;;;9.52;6.30;;;5.00;91.90;;;;;;5118931;27;20034;-79
2021/01/22 05:27:08;;;;;;;8.82;7.07;;;5.00;91.90;;;;;;5113883;28;20034;-79
2021/01/22 05:29:35;;;;;;;8.68;6.80;;;5.00;91.90;;;;;;5108689;28;20020;-79
2021/01/22 05:32:02;;;;;;;8.15;6.72;;;5.00;91.90;;;;;;5113563;28;20384;-79
2021/01/22 05:34:45;;;;;;;8.50;6.68;;;5.00;91.90;;;;;;5109021;28;20023;-79
2021/01/22 05:37:11;;;;;;;14.30;8.50;;;5.00;91.90;;;;;;5114805;27;20040;-79
2021/01/22 05:39:37;;;;;;;9.15;6.57;;;5.00;91.80;;;;;;5122700;27;20030;-79
2021/01/22 05:42:02;;;;;;;9.95;7.43;;;5.00;91.80;;;;;;5114512;28;20422;-78
2021/01/22 05:44:28;;;;;;;7.95;6.60;;;5.00;91.90;;;;;;5114560;27;20028;-79
2021/01/22 05:47:04;;;;;;;10.00;6.57;;;5.00;91.90;;;;;;5096721;28;20027;-79
2021/01/22 05:49:30;;;;;;;11.50;7.60;;;5.00;92.00;;;;;;5114503;27;20018;-79
2021/01/22 05:51:55;;;;;;;11.20;7.45;;;5.00;91.90;;;;;;5114388;27;20024;-79
2021/01/22 05:54:38;;;;;;;8.43;6.70;;;5.00;91.90;;;;;;5113209;28;20396;-79
2021/01/22 05:57:05;;;;;;;9.68;7.68;;;5.00;92.00;;;;;;5093291;28;20034;-79
2021/01/22 05:59:34;;;;;;;10.18;6.60;;;5.00;91.90;;;;;;5105506;27;20050;-79
2021/01/22 06:01:59;;;;;;;10.02;6.72;;;5.00;92.00;;;;;;5128422;27;20058;-79
2021/01/22 06:04:25;;;;;;;9.25;6.75;;;5.00;91.90;;;;;;5105635;28;20066;-79
2021/01/22 06:06:51;;;;;;;11.50;7.38;;;5.00;92.00;;;;;;5096158;28;20040;-79
2021/01/22 06:09:33;;;;;;;8.25;6.20;;;5.00;92.00;;;;;;5114041;28;20024;-79
2021/01/22 06:12:03;;;;;;;8.55;6.78;;;5.00;92.00;;;;;;5100266;28;20111;-79
2021/01/22 06:14:34;;;;;;;10.98;5.97;;;5.00;92.00;;;;;;5132404;27;20110;-79
2021/01/22 06:17:05;;;;;;;8.48;6.13;;;5.00;92.00;;;;;;5114190;28;20027;-79
2021/01/22 06:19:34;;;;;;;10.55;6.03;;;5.10;92.00;;;;;;5126556;27;20482;-79
2021/01/22 06:22:05;;;;;;;12.55;6.88;;;5.00;92.00;;;;;;5134724;27;20019;-79
2021/01/22 06:24:31;;;;;;;8.73;6.28;;;5.10;92.00;;;;;;5134673;27;20086;-79
2021/01/22 06:26:56;;;;;;;8.70;5.75;;;5.10;91.90;;;;;;5134581;27;20032;-79
2021/01/22 06:29:23;;;;;;;9.60;5.65;;;5.20;91.90;;;;;;5111986;28;20031;-79
2021/01/22 06:31:50;;;;;;;6.75;5.38;;;5.20;91.90;;;;;;5113647;28;20034;-79
2021/01/22 06:34:17;;;;;;;6.97;5.63;;;5.20;91.90;;;;;;5113719;28;20023;-78
2021/01/22 06:36:43;;;;;;;7.97;5.57;;;5.20;91.90;;;;;;5078144;28;20047;-79
2021/01/22 06:39:09;;;;;;;10.15;5.93;;;5.20;91.90;;;;;;5095804;28;20431;-78
2021/01/22 06:41:36;;;;;;;12.02;5.35;;;5.20;91.90;;;;;;5095638;28;20032;-79
2021/01/22 06:44:02;;;;;;;7.97;5.43;;;5.20;91.90;;;;;;5095541;28;20114;-79
2021/01/22 06:46:29;;;;;;;8.65;5.10;;;5.20;91.90;;;;;;5114326;28;20555;-79
2021/01/22 06:49:05;;;;;;;8.07;5.70;;;5.20;91.90;;;;;;5113735;28;20050;-78
2021/01/22 06:51:35;;;;;;;7.03;5.32;;;5.20;91.90;;;;;;5113807;28;20035;-78
2021/01/22 06:54:16;;;;;;;9.68;5.03;;;5.20;91.90;;;;;;5112583;28;20020;-78
2021/01/22 06:56:51;;;;;;;7.85;5.32;;;5.30;91.90;;;;;;5113830;28;20102;-78
2021/01/22 06:59:29;;;;;;;7.82;5.35;;;5.30;91.90;;;;;;5113618;28;20042;-78
2021/01/22 07:01:55;;;;;;;11.27;5.72;;;5.20;91.90;;;;;;5107236;28;20422;-78
2021/01/22 07:04:33;;;;;;;9.82;5.68;;;5.20;91.90;;;;;;5078865;28;20027;-78
2021/01/22 07:07:05;;;;;;;8.07;4.88;;;5.20;91.90;;;;;;5113149;28;20020;-78
2021/01/22 07:09:43;;;;;;;8.48;5.30;;;5.20;91.90;;;;;;5113691;28;20024;-78
2021/01/22 07:12:16;;;;;;;7.07;5.18;;;5.20;92.00;;;;;;5095517;28;20066;-78
2021/01/22 07:14:50;;;;;;;7.57;5.63;;;5.20;92.00;;;;;;5113548;28;20115;-78
2021/01/22 07:17:20;;;;;;;7.40;5.47;;;5.30;92.00;;;;;;5112825;28;20024;-79
2021/01/22 07:20:04;;;;;;;11.45;5.78;;;5.20;91.90;;;;;;5132614;27;20019;-78
2021/01/22 07:22:31;;;;;;;9.52;5.45;;;5.30;91.90;;;;;;5122892;28;20020;-78
2021/01/22 07:24:59;;;;;;;8.05;5.53;;;5.30;91.90;;;;;;5118072;28;20042;-78
2021/01/22 07:27:43;;;;;;;7.93;5.72;;;5.20;91.90;;;;;;5121624;28;20019;-78
2021/01/22 07:30:14;;;;;;;10.45;5.63;;;5.30;92.00;;;;;;5132285;27;20046;-78
2021/01/22 07:32:42;;;;;;;10.80;6.45;;;5.20;91.90;;;;;;5128140;27;20484;-77
2021/01/22 07:35:20;;;;;;;10.55;6.20;;;5.30;91.90;;;;;;5095549;28;20028;-78
2021/01/22 07:37:47;;;;;;;10.35;6.57;;;5.20;91.90;;;;;;5076453;28;20512;-77
2021/01/22 07:40:14;;;;;;;11.82;6.93;;;5.20;91.90;;;;;;5091832;28;20040;-77
2021/01/22 07:42:40;;;;;;;13.93;6.75;;;5.20;91.90;;;;;;5093909;28;20025;-77
2021/01/22 07:45:15;;;;;;;11.10;6.45;;;5.30;92.00;;;;;;5099098;28;20438;-77
2021/01/22 07:47:42;;;;;;;11.90;7.03;;;5.20;91.90;;;;;;5115771;27;20409;-77
2021/01/22 07:50:16;;;;;;;13.63;8.07;;;5.20;91.90;;;;;;5119188;27;20042;-78
2021/01/22 07:52:49;;;;;;;14.10;7.38;;;5.20;92.00;;;;;;5119433;27;20471;-77
2021/01/22 07:55:25;;;;;;;12.90;6.80;;;5.20;91.90;;;;;;5119093;27;20042;-77
2021/01/22 07:58:05;;;;;;;13.82;7.82;;;5.20;92.00;;;;;;5137665;27;20030;-77
2021/01/22 08:00:40;;;;;;;16.77;7.57;;;5.20;92.00;;;;;;5119953;27;20024;-78
2021/01/22 08:03:07;;;;;;;15.07;7.63;;;5.20;92.00;;;;;;5117497;27;20486;-77
2021/01/22 08:05:37;;;;;;;10.63;6.45;;;5.20;92.00;;;;;;5128545;27;20035;-77
2021/01/22 08:08:20;;;;;;;14.07;7.82;;;5.20;92.00;;;;;;5098786;28;20028;-77
2021/01/22 08:10:47;;;;;;;15.88;7.95;;;5.30;92.00;;;;;;5116672;28;20023;-78
2021/01/22 08:13:14;;;;;;;12.07;7.03;;;5.30;92.00;;;;;;5116767;28;20107;-78
2021/01/22 08:15:40;;;;;;;10.82;6.97;;;5.30;92.00;;;;;;5116521;28;20016;-78
2021/01/22 08:18:06;;;;;;;10.32;7.10;;;5.30;92.00;;;;;;5132100;27;20380;-78
2021/01/22 08:20:33;;;;;;;14.52;7.38;;;5.40;91.90;;;;;;5137020;27;20399;-78
2021/01/22 08:22:59;;;;;;;12.93;6.47;;;5.40;91.90;;;;;;5117976;27;20038;-78
2021/01/22 08:25:28;;;;;;;10.98;7.10;;;5.40;91.90;;;;;;5136945;27;20031;-78
2021/01/22 08:27:58;;;;;;;14.20;7.22;;;5.40;91.90;;;;;;5122824;27;20102;-78
2021/01/22 08:30:29;;;;;;;12.50;7.43;;;5.40;91.80;;;;;;5097866;28;20094;-78
2021/01/22 08:32:57;;;;;;;13.32;7.75;;;5.50;91.80;;;;;;5116117;28;20019;-78
2021/01/22 08:35:26;;;;;;;12.75;7.43;;;5.50;91.80;;;;;;5116465;28;20543;-78
2021/01/22 08:37:54;;;;;;;18.02;7.90;;;5.50;91.80;;;;;;5097705;28;20052;-78
2021/01/22 08:40:20;;;;;;;18.17;8.13;;;5.50;91.80;;;;;;5116184;28;20133;-78
2021/01/22 08:43:01;;;;;;;14.95;6.93;;;5.50;91.80;;;;;;5116132;28;20031;-78
2021/01/22 08:45:27;;;;;;;19.33;8.23;;;5.50;91.80;;;;;;5115982;28;20110;-78
2021/01/22 08:47:53;;;;;;;19.45;8.13;;;5.50;91.80;;;;;;5080924;28;20457;-78
2021/01/22 08:50:19;;;;;;;14.23;8.13;;;5.50;91.80;;;;;;5115731;28;20027;-79
2021/01/22 08:52:46;;;;;;;17.90;8.90;;;5.60;91.80;;;;;;5118909;27;20468;-79
2021/01/22 08:55:22;;;;;;;17.67;8.60;;;5.60;91.80;;;;;;5096913;28;20423;-79
2021/01/22 08:58:05;;;;;;;18.83;9.55;;;5.60;91.80;;;;;;5126639;27;20464;-79
2021/01/22 09:00:31;;;;;;;14.80;8.23;;;5.60;91.80;;;;;;5132388;27;20027;-79
2021/01/22 09:02:58;;;;;;;16.50;7.70;;;5.70;91.70;;;;;;5115918;28;20038;-79
2021/01/22 09:05:24;;;;;;;14.88;8.45;;;5.70;91.70;;;;;;5115788;28;20027;-79
2021/01/22 09:08:10;;;;;;;20.42;8.90;;;5.70;91.90;;;;;;5114576;28;20030;-79
2021/01/22 09:10:46;;;;;;;11.70;8.20;;;5.80;91.70;;;;;;5115560;28;20119;-79
2021/01/22 09:13:19;;;;;;;17.10;9.48;;;5.80;91.70;;;;;;5115359;28;20028;-79
2021/01/22 09:15:45;;;;;;;16.60;8.80;;;5.80;91.60;;;;;;5114176;28;20038;-80
2021/01/22 09:18:17;;;;;;;13.27;8.15;;;5.90;91.60;;;;;;5112213;28;20075;-80
2021/01/22 09:20:44;;;;;;;23.17;9.40;;;5.90;91.60;;;;;;5115274;28;20106;-79
2021/01/22 09:23:10;;;;;;;20.23;10.07;;;6.00;91.50;;;;;;5115062;28;20028;-79
2021/01/22 09:25:36;;;;;;;16.33;9.80;;;6.00;91.50;;;;;;5097334;28;20080;-80
2021/01/22 09:28:02;;;;;;;19.83;9.63;;;6.00;91.50;;;;;;5115224;28;20027;-83
2021/01/22 09:30:28;;;;;;;15.68;8.73;;;6.10;91.50;;;;;;5096874;28;20039;-81
2021/01/22 09:32:59;;;;;;;15.25;8.65;;;6.10;91.40;;;;;;5132359;27;20035;-82
2021/01/22 09:35:28;;;;;;;14.63;8.40;;;6.10;91.40;;;;;;5135647;27;20051;-82
2021/01/22 09:37:54;;;;;;;16.00;9.20;;;6.20;91.30;;;;;;5117188;27;20500;-82
2021/01/22 09:40:21;;;;;;;20.48;10.13;;;6.20;91.30;;;;;;5117241;27;20080;-81
2021/01/22 09:42:47;;;;;;;14.68;8.13;;;6.20;91.30;;;;;;5135550;27;20035;-82
2021/01/22 09:45:14;;;;;;;14.82;8.90;;;6.20;91.30;;;;;;5120727;27;20020;-82
2021/01/22 09:47:39;;;;;;;16.15;9.30;;;6.20;91.30;;;;;;5114679;28;20036;-82
2021/01/22 09:50:07;;;;;;;17.92;9.32;;;6.30;91.30;;;;;;5113898;28;20027;-83
2021/01/22 09:52:37;;;;;;;19.33;9.13;;;6.20;91.30;;;;;;5118831;27;20034;-82
2021/01/22 09:55:13;;;;;;;17.23;9.27;;;6.30;91.30;;;;;;5135296;27;20534;-83
2021/01/22 09:57:39;;;;;;;15.02;8.25;;;6.30;91.20;;;;;;5118037;27;20027;-82
2021/01/22 10:00:07;;;;;;;15.52;8.82;;;6.30;91.20;;;;;;5117067;27;20027;-82
2021/01/22 10:02:33;;;;;;;18.50;8.45;;;6.30;91.10;;;;;;5117072;27;20547;-82
2021/01/22 10:04:59;;;;;;;18.85;9.05;;;6.20;91.10;;;;;;5111015;27;20127;-82
2021/01/22 10:07:24;;;;;;;17.08;9.10;;;6.20;91.10;;;;;;5121151;27;20039;-83
2021/01/22 10:09:50;;;;;;;27.10;10.95;;;6.30;91.10;;;;;;5120522;27;20464;-82
2021/01/22 10:12:15;;;;;;;20.35;10.07;;;6.30;91.10;;;;;;5096130;28;20080;-82
2021/01/22 10:14:41;;;;;;;21.08;9.73;;;6.30;91.00;;;;;;5097528;28;20034;-82
2021/01/22 10:17:07;;;;;;;19.33;9.30;;;6.30;90.90;;;;;;5092024;28;20034;-83
2021/01/22 10:19:33;;;;;;;20.38;9.85;;;6.30;90.80;;;;;;5102656;28;20023;-82
2021/01/22 10:21:58;;;;;;;18.02;9.82;;;6.30;90.70;;;;;;5099362;28;20023;-82
2021/01/22 10:24:24;;;;;;;20.00;9.65;;;6.30;90.80;;;;;;5095895;28;20031;-83
2021/01/22 10:26:50;;;;;;;19.90;10.23;;;6.40;90.80;;;;;;5131918;27;20510;-83
2021/01/22 10:29:16;;;;;;;14.60;9.70;;;6.40;90.70;;;;;;5112071;27;20052;-82
2021/01/22 10:31:42;;;;;;;17.73;9.80;;;6.40;90.70;;;;;;5134615;27;20031;-80
2021/01/22 10:34:13;;;;;;;18.90;9.48;;;6.50;90.70;;;;;;5134607;27;20375;-81
2021/01/22 10:36:38;;;;;;;25.48;10.38;;;6.50;90.70;;;;;;5099668;28;20034;-82
2021/01/22 10:39:04;;;;;;;18.02;8.50;;;6.60;90.70;;;;;;5126566;27;20024;-83
2021/01/22 10:41:31;;;;;;;14.55;8.02;;;6.70;90.60;;;;;;5078562;28;20035;-80
2021/01/22 10:43:57;;;;;;;13.70;8.68;;;6.80;90.60;;;;;;5114019;28;20110;-80
2021/01/22 10:46:23;;;;;;;14.80;8.18;;;6.90;90.50;;;;;;5095598;28;20077;-79
2021/01/22 10:48:48;;;;;;;13.63;8.65;;;7.00;90.50;;;;;;5112903;28;20027;-80
2021/01/22 10:51:14;;;;;;;13.50;8.15;;;7.10;90.10;;;;;;5103951;28;20027;-80
2021/01/22 10:53:40;;;;;;;20.50;9.57;;;7.10;90.00;;;;;;5116024;28;20027;-80
2021/01/22 10:56:06;;;;;;;15.55;8.82;;;7.20;90.10;;;;;;5116031;28;20019;-80
2021/01/22 10:58:32;;;;;;;14.15;9.05;;;7.20;90.00;;;;;;5099098;28;20030;-79
2021/01/22 11:00:57;;;;;;;16.25;7.90;;;7.30;90.10;;;;;;5114742;28;20475;-79
2021/01/22 11:03:24;;;;;;;15.07;8.43;;;7.30;89.80;;;;;;5101113;28;20034;-79
2021/01/22 11:05:49;;;;;;;15.15;7.93;;;7.30;89.30;;;;;;5134201;27;20019;-79
2021/01/22 11:08:15;;;;;;;17.35;7.80;;;7.30;89.40;;;;;;5115973;28;20028;-80
2021/01/22 11:10:40;;;;;;;14.45;8.10;;;7.30;89.20;;;;;;5134134;28;20023;-78
2021/01/22 11:13:06;;;;;;;14.88;7.90;;;7.30;88.90;;;;;;5115748;28;20015;-78
2021/01/22 11:15:35;;;;;;;9.88;6.50;;;7.40;88.90;;;;;;5134092;28;20075;-79
2021/01/22 11:18:01;;;;;;;12.38;5.68;;;7.50;88.80;;;;;;5134031;28;20042;-78
2021/01/22 11:20:27;;;;;;;15.32;6.18;;;7.60;88.90;;;;;;5128260;28;20024;-79
2021/01/22 11:22:53;;;;;;;12.52;6.20;;;7.80;88.60;;;;;;5113892;28;20077;-79
2021/01/22 11:25:21;;;;;;;13.70;6.50;;;7.90;86.80;;;;;;5117258;28;20032;-80
2021/01/22 11:27:47;;;;;;;13.07;6.90;;;7.90;86.60;;;;;;5095962;28;20024;-79
2021/01/22 11:30:13;;;;;;;13.80;6.43;;;7.90;85.70;;;;;;5097128;28;20024;-79
2021/01/22 11:32:39;;;;;;;12.40;6.00;;;7.80;86.40;;;;;;5104183;28;20024;-78
2021/01/22 11:35:09;;;;;;;9.27;5.60;;;7.80;86.50;;;;;;5115779;28;20115;-79
2021/01/22 11:37:38;;;;;;;9.35;5.50;;;7.80;86.70;;;;;;5117095;28;20042;-79
2021/01/22 11:40:04;;;;;;;;;;;7.70;85.70;;;;;;5117696;28;20024;-79
2021/01/22 11:42:30;;;;;;;10.20;5.32;;;7.70;85.60;;;;;;5110388;28;20395;-79
2021/01/22 11:44:55;;;;;;;7.93;5.03;;;7.60;86.40;;;;;;5099281;28;20056;-79
2021/01/22 11:47:21;;;;;;;9.70;5.35;;;7.50;86.60;;;;;;5101282;28;20039;-79
2021/01/22 11:49:46;;;;;;;10.05;5.60;;;7.50;87.00;;;;;;5117059;28;20092;-79
2021/01/22 11:52:12;;;;;;;14.73;5.55;;;7.60;87.00;;;;;;5098991;28;20050;-79
2021/01/22 11:54:38;;;;;;;10.68;5.80;;;7.70;86.90;;;;;;5103830;28;20492;-79
2021/01/22 11:57:05;;;;;;;11.82;5.88;;;7.70;85.80;;;;;;5116091;28;20362;-79
2021/01/22 11:59:31;;;;;;;11.65;5.97;;;7.90;85.70;;;;;;5116904;28;20465;-79
2021/01/22 12:01:57;;;;;;;13.32;6.03;;;8.10;84.90;;;;;;5110247;28;20233;-78
2021/01/22 12:04:23;;;;;;;13.13;6.07;;;8.20;83.70;;;;;;5116962;28;20035;-79
2021/01/22 12:06:48;;;;;;;13.20;6.00;;;8.30;82.80;;;;;;5115778;28;20028;-78
2021/01/22 12:09:14;;;;;;;13.07;5.38;;;8.40;82.50;;;;;;5115519;28;20035;-79
2021/01/22 12:11:39;;;;;;;10.23;4.30;;;8.50;82.40;;;;;;5116735;28;20036;-79
2021/01/22 12:14:05;;;;;;;13.52;4.63;;;8.70;81.60;;;;;;5116650;28;20030;-79
2021/01/22 12:16:30;;;;;;;9.73;5.60;;;9.00;80.80;;;;;;5115286;28;20499;-79
2021/01/22 12:18:56;;;;;;;13.57;5.55;;;9.20;79.10;;;;;;5116505;28;20380;-80
2021/01/22 12:21:22;;;;;;;8.35;4.43;;;9.40;78.20;;;;;;5097307;28;20057;-79
2021/01/22 12:23:47;;;;;;;12.77;4.43;;;9.50;77.40;;;;;;5097860;28;20023;-79
2021/01/22 12:26:13;;;;;;;8.07;4.38;;;9.70;77.10;;;;;;5100303;28;20039;-79
2021/01/22 12:28:40;;;;;;;9.30;4.22;;;10.00;76.10;;;;;;5116212;28;20027;-81
2021/01/22 12:31:06;;;;;;;11.90;4.53;;;10.30;74.60;;;;;;5102885;28;20024;-80
2021/01/22 12:33:32;;;;;;;9.95;3.92;;;10.60;73.60;;;;;;5082511;28;20096;-80
2021/01/22 12:35:58;;;;;;;11.77;3.80;;;10.60;72.80;;;;;;5112823;28;20015;-73
2021/01/22 12:38:24;;;;;;;7.45;3.58;;;10.70;72.90;;;;;;5115114;27;20040;-72
2021/01/22 12:40:50;;;;;;;9.93;3.90;;;10.70;72.50;;;;;;5101906;28;20031;-73
2021/01/22 12:43:16;;;;;;;10.82;3.78;;;10.70;72.10;;;;;;5112280;28;20032;-75
2021/01/22 12:45:42;;;;;;;6.63;3.47;;;10.60;72.70;;;;;;5069721;27;20518;-73
2021/01/22 12:48:08;;;;;;;8.07;3.45;;;10.60;72.30;;;;;;5104183;28;20092;-73
2021/01/22 12:50:34;;;;;;;10.95;3.67;;;10.70;71.80;;;;;;5112487;28;20038;-72
2021/01/22 12:53:00;;;;;;;8.18;3.55;;;10.80;71.80;;;;;;5113571;28;20028;-73
2021/01/22 12:55:26;;;;;;;8.25;3.60;;;10.70;72.40;;;;;;5112369;27;20111;-73